Time;durP1;ratioP1;P1;durP2;ratioP2;P2;SDS_P1;SDS_P2;PMS_P1;PMS_P2;Temp;Humidity;BMP_temperature;BMP_pressure;BME280_temperature;BME280_humidity;BME280_pressure;Samples;Min_cycle;Max_cycle;Signal;HPM_P1;HPM_P2
2023/03/25 00:01:07;;;;;;;4.13;1.20;;;13.40;74.30;;;;;;6306590;22;20412;-75
2023/03/25 00:03:37;;;;;;;2.83;1.07;;;13.50;73.70;;;;;;6306825;22;20859;-76
2023/03/25 00:06:06;;;;;;;2.77;1.00;;;13.40;74.00;;;;;;6306306;22;20434;-76
2023/03/25 00:08:33;;;;;;;3.83;1.30;;;13.30;73.70;;;;;;6306836;22;20403;-75
2023/03/25 00:11:02;;;;;;;1.77;0.90;;;13.40;73.60;;;;;;6306810;22;20489;-76
2023/03/25 00:13:30;;;;;;;3.07;1.40;;;13.30;73.40;;;;;;6306732;22;20415;-74
2023/03/25 00:15:58;;;;;;;2.03;1.10;;;13.40;73.90;;;;;;6307978;22;20414;-75
2023/03/25 00:18:28;;;;;;;3.87;1.40;;;13.40;73.90;;;;;;6307390;22;20453;-75
2023/03/25 00:20:56;;;;;;;1.87;1.20;;;13.30;73.90;;;;;;6305983;22;20498;-75
2023/03/25 00:23:23;;;;;;;2.07;1.23;;;13.30;73.90;;;;;;6306353;22;20418;-75
2023/03/25 00:25:51;;;;;;;3.87;1.23;;;13.30;74.80;;;;;;6306247;22;20953;-75
2023/03/25 00:28:18;;;;;;;4.33;1.53;;;13.20;74.10;;;;;;6306155;22;20430;-76
2023/03/25 00:30:46;;;;;;;3.50;1.40;;;13.20;73.60;;;;;;6306725;22;20500;-75
2023/03/25 00:33:13;;;;;;;1.70;0.83;;;13.30;73.40;;;;;;6306589;22;20402;-75
2023/03/25 00:35:43;;;;;;;3.90;1.40;;;13.30;73.20;;;;;;6305618;22;20406;-74
2023/03/25 00:38:11;;;;;;;2.27;0.90;;;13.30;73.00;;;;;;6306467;22;20477;-76
2023/03/25 00:40:39;;;;;;;2.87;1.40;;;13.40;72.30;;;;;;6308409;22;20410;-75
2023/03/25 00:43:06;;;;;;;3.60;1.03;;;13.20;72.50;;;;;;6308306;22;20480;-75
2023/03/25 00:45:34;;;;;;;2.40;1.20;;;13.30;73.10;;;;;;6308312;22;20430;-75
2023/03/25 00:48:01;;;;;;;2.73;1.30;;;13.20;73.50;;;;;;6308016;22;20449;-75
2023/03/25 00:50:28;;;;;;;5.17;1.93;;;13.30;73.80;;;;;;6308625;22;20496;-74
2023/03/25 00:52:55;;;;;;;2.37;1.33;;;13.30;74.00;;;;;;6308253;22;20438;-75
2023/03/25 00:55:23;;;;;;;4.70;1.60;;;13.30;74.10;;;;;;6255197;22;20445;-76
2023/03/25 00:57:50;;;;;;;2.53;0.93;;;13.30;74.20;;;;;;6308415;22;20434;-76
2023/03/25 01:00:19;;;;;;;1.43;1.20;;;13.30;74.10;;;;;;6308429;22;20394;-75
2023/03/25 01:02:46;;;;;;;3.03;1.63;;;13.40;74.00;;;;;;6308397;22;20492;-74
2023/03/25 01:05:13;;;;;;;2.00;1.33;;;13.50;73.60;;;;;;6308231;22;20430;-75
2023/03/25 01:07:41;;;;;;;3.63;1.30;;;13.60;73.20;;;;;;6308578;22;20488;-75
2023/03/25 01:10:10;;;;;;;3.17;1.20;;;13.60;72.90;;;;;;6308651;22;20757;-75
2023/03/25 01:12:38;;;;;;;2.97;1.30;;;13.50;72.70;;;;;;6308790;22;20409;-75
2023/03/25 01:15:06;;;;;;;4.57;1.47;;;13.50;72.50;;;;;;6308343;22;20441;-74
2023/03/25 01:17:33;;;;;;;2.30;1.17;;;13.60;72.70;;;;;;6308146;22;20434;-74
2023/03/25 01:20:00;;;;;;;3.23;1.30;;;13.60;72.50;;;;;;6308464;22;20801;-74
2023/03/25 01:22:27;;;;;;;6.03;1.57;;;13.60;72.10;;;;;;6280746;22;20434;-75
2023/03/25 01:24:54;;;;;;;5.83;2.23;;;13.60;71.70;;;;;;6280994;22;20409;-74
2023/03/25 01:27:23;;;;;;;5.43;1.27;;;13.70;71.20;;;;;;6308273;22;20422;-75
2023/03/25 01:29:53;;;;;;;2.70;1.10;;;13.70;70.70;;;;;;6307983;22;20437;-74
2023/03/25 01:32:20;;;;;;;3.60;1.50;;;13.80;70.60;;;;;;6308386;22;20472;-75
2023/03/25 01:34:47;;;;;;;4.23;1.27;;;13.80;70.30;;;;;;6308347;22;20580;-65
2023/03/25 01:37:14;;;;;;;2.23;1.30;;;13.80;70.60;;;;;;6307863;22;20411;-65
2023/03/25 01:39:41;;;;;;;1.13;1.03;;;13.70;71.20;;;;;;6306993;22;20437;-65
2023/03/25 01:42:07;;;;;;;3.97;1.33;;;13.50;72.30;;;;;;6307612;22;20406;-65
2023/03/25 01:45:20;;;;;;;2.57;1.67;;;13.40;73.30;;;;;;6307876;22;20412;-64
2023/03/25 01:47:51;;;;;;;1.57;0.80;;;13.30;75.40;;;;;;6252212;22;20451;-64
2023/03/25 01:50:20;;;;;;;3.10;1.03;;;13.10;75.70;;;;;;6306879;22;20477;-64
2023/03/25 01:52:51;;;;;;;2.20;0.63;;;12.70;76.90;;;;;;6307195;22;20479;-65
2023/03/25 01:55:20;;;;;;;2.30;0.70;;;12.70;77.00;;;;;;6306908;22;20823;-66
2023/03/25 01:57:48;;;;;;;1.03;0.73;;;12.60;76.70;;;;;;6307438;22;20472;-65
2023/03/25 02:00:16;;;;;;;3.50;0.83;;;12.60;76.50;;;;;;6307470;22;20511;-78
2023/03/25 02:02:44;;;;;;;1.80;0.83;;;12.50;76.10;;;;;;6307456;22;20459;-73
2023/03/25 02:05:18;;;;;;;2.00;0.73;;;12.40;77.00;;;;;;6307890;22;20722;-73
2023/03/25 02:07:47;;;;;;;1.10;0.80;;;12.30;76.70;;;;;;6307888;22;20422;-74
2023/03/25 02:10:15;;;;;;;1.17;0.87;;;12.30;76.70;;;;;;6228036;22;20890;-74
2023/03/25 02:12:44;;;;;;;3.43;0.93;;;12.30;77.00;;;;;;6307461;22;20497;-74
2023/03/25 02:15:13;;;;;;;1.97;1.00;;;12.60;77.10;;;;;;6306968;22;20503;-74
2023/03/25 02:17:56;;;;;;;0.90;0.77;;;12.60;76.40;;;;;;6307463;22;20462;-75
2023/03/25 02:21:01;;;;;;;0.73;0.53;;;12.70;76.30;;;;;;6307259;22;20702;-74
2023/03/25 02:24:34;;;;;;;2.73;0.87;;;12.70;76.40;;;;;;6307292;22;20858;-75
2023/03/25 02:27:14;;;;;;;0.87;0.77;;;12.70;76.00;;;;;;6202756;23;20467;-75
2023/03/25 02:30:23;;;;;;;1.73;0.90;;;12.70;75.90;;;;;;6212414;23;20400;-75
2023/03/25 02:33:19;;;;;;;1.30;0.80;;;12.70;75.90;;;;;;6294420;22;20412;-75
2023/03/25 02:36:05;;;;;;;2.27;0.63;;;12.60;75.80;;;;;;6305470;22;20444;-74
2023/03/25 02:38:40;;;;;;;1.13;0.60;;;12.60;75.80;;;;;;6306801;22;20430;-75
2023/03/25 02:41:14;;;;;;;0.97;0.70;;;12.60;75.80;;;;;;6307389;22;20409;-73
2023/03/25 02:43:46;;;;;;;1.00;0.93;;;12.70;75.60;;;;;;6307066;22;20887;-73
2023/03/25 02:46:16;;;;;;;1.90;1.00;;;12.60;75.20;;;;;;6306804;22;20465;-75
2023/03/25 02:48:52;;;;;;;1.70;1.07;;;12.60;75.20;;;;;;6306902;22;20504;-75
2023/03/25 02:51:24;;;;;;;2.23;1.07;;;12.60;75.80;;;;;;6280854;22;20391;-75
2023/03/25 02:53:55;;;;;;;3.17;1.10;;;12.50;75.10;;;;;;6306515;22;20418;-74
2023/03/25 02:56:25;;;;;;;0.70;0.70;;;12.50;75.70;;;;;;6306931;22;20517;-74
2023/03/25 02:58:55;;;;;;;1.47;0.73;;;12.60;75.80;;;;;;6306132;22;20437;-75
2023/03/25 03:01:25;;;;;;;1.27;0.80;;;12.60;75.60;;;;;;6306876;22;20890;-77
2023/03/25 03:03:52;;;;;;;1.07;0.70;;;12.60;75.50;;;;;;6306897;22;20398;-74
2023/03/25 03:06:20;;;;;;;0.67;0.67;;;12.60;76.50;;;;;;6306489;22;20933;-73
2023/03/25 03:09:06;;;;;;;0.60;0.60;;;12.60;75.70;;;;;;6306184;22;20466;-74
2023/03/25 03:11:42;;;;;;;0.77;0.77;;;12.50;76.00;;;;;;6307304;22;20393;-74
2023/03/25 03:14:30;;;;;;;1.03;0.77;;;12.40;76.40;;;;;;6306875;22;20910;-74
2023/03/25 03:17:06;;;;;;;1.90;0.83;;;12.40;76.50;;;;;;6307741;22;20379;-74
2023/03/25 03:19:38;;;;;;;2.03;0.80;;;12.40;76.40;;;;;;6278983;22;20438;-75
2023/03/25 03:22:17;;;;;;;0.73;0.70;;;12.30;76.50;;;;;;6306493;22;20405;-75
2023/03/25 03:24:50;;;;;;;0.63;0.63;;;12.30;77.40;;;;;;6306417;22;20391;-74
2023/03/25 03:27:27;;;;;;;0.50;0.50;;;12.40;76.40;;;;;;6306674;22;20452;-74
2023/03/25 03:30:01;;;;;;;1.10;0.70;;;12.30;76.50;;;;;;6306398;22;20391;-73
2023/03/25 03:32:34;;;;;;;2.10;0.90;;;12.40;76.40;;;;;;6279296;22;20437;-73
2023/03/25 03:35:06;;;;;;;1.63;0.70;;;12.30;76.20;;;;;;6306225;22;20540;-74
2023/03/25 03:37:36;;;;;;;0.77;0.60;;;12.30;75.80;;;;;;6306486;22;20399;-74
2023/03/25 03:40:10;;;;;;;1.93;0.90;;;12.40;75.50;;;;;;6306374;22;20812;-73
2023/03/25 03:42:42;;;;;;;0.87;0.83;;;12.40;75.00;;;;;;6306695;22;20454;-74
2023/03/25 03:45:16;;;;;;;1.17;0.73;;;12.40;74.80;;;;;;6306101;22;20469;-73
2023/03/25 03:47:47;;;;;;;1.67;0.90;;;12.40;75.30;;;;;;6306274;22;20831;-73
2023/03/25 03:50:18;;;;;;;1.70;0.70;;;12.40;74.50;;;;;;6306153;22;20436;-72
2023/03/25 03:52:50;;;;;;;1.73;1.00;;;12.40;74.20;;;;;;6279337;22;20893;-73
2023/03/25 03:55:22;;;;;;;1.83;0.70;;;12.40;73.90;;;;;;6306035;22;20525;-73
2023/03/25 03:57:54;;;;;;;1.10;0.60;;;12.40;73.70;;;;;;6306390;22;20387;-73
2023/03/25 04:00:26;;;;;;;2.10;0.90;;;12.40;73.60;;;;;;6306099;22;20452;-73
2023/03/25 04:02:59;;;;;;;1.40;0.90;;;12.50;73.40;;;;;;6306463;22;20390;-73
2023/03/25 04:05:29;;;;;;;1.13;0.90;;;12.50;73.20;;;;;;6306017;22;20477;-73
2023/03/25 04:08:01;;;;;;;0.70;0.60;;;12.40;73.40;;;;;;6306431;22;20711;-73
2023/03/25 04:10:38;;;;;;;1.03;0.70;;;12.50;73.40;;;;;;6305978;22;20409;-73
2023/03/25 04:13:10;;;;;;;1.40;0.90;;;12.50;72.60;;;;;;6306065;22;20390;-73
2023/03/25 04:15:38;;;;;;;0.80;0.80;;;12.50;72.60;;;;;;6305269;22;20786;-73
2023/03/25 04:18:05;;;;;;;2.37;1.07;;;12.50;72.80;;;;;;6306405;22;20387;-74
2023/03/25 04:20:35;;;;;;;3.00;1.00;;;12.40;72.40;;;;;;6305494;22;20438;-73
2023/03/25 04:23:03;;;;;;;1.03;0.90;;;12.40;72.90;;;;;;6306219;22;20438;-75
2023/03/25 04:25:32;;;;;;;2.43;1.17;;;12.40;73.20;;;;;;6305741;22;20506;-74
2023/03/25 04:27:59;;;;;;;3.53;1.30;;;12.30;72.80;;;;;;6305970;22;20520;-73
2023/03/25 04:30:27;;;;;;;2.37;1.30;;;12.30;72.60;;;;;;6305461;22;20513;-75
2023/03/25 04:32:55;;;;;;;2.80;1.40;;;12.30;72.40;;;;;;6307158;22;20904;-73
2023/03/25 04:35:24;;;;;;;3.27;1.03;;;12.40;71.70;;;;;;6309275;22;20407;-73
2023/03/25 04:37:53;;;;;;;3.37;0.93;;;12.40;71.60;;;;;;6307248;22;20414;-74
2023/03/25 04:40:20;;;;;;;5.80;1.83;;;12.40;71.40;;;;;;6306127;22;20488;-73
2023/03/25 04:42:48;;;;;;;3.33;1.30;;;12.50;71.30;;;;;;6306813;22;20434;-73
2023/03/25 04:45:16;;;;;;;3.20;1.03;;;12.50;71.00;;;;;;6305753;22;20413;-73
2023/03/25 04:47:45;;;;;;;1.93;1.10;;;12.60;70.90;;;;;;6306306;22;20433;-73
2023/03/25 04:50:20;;;;;;;2.03;1.00;;;12.60;70.10;;;;;;6305164;22;20434;-73
2023/03/25 04:52:47;;;;;;;2.07;1.00;;;12.60;70.70;;;;;;6306040;22;20420;-73
2023/03/25 04:55:16;;;;;;;4.20;1.17;;;12.60;70.70;;;;;;6305285;22;20406;-73
2023/03/25 04:57:44;;;;;;;4.47;1.40;;;12.60;70.00;;;;;;6305699;22;20418;-73
2023/03/25 05:00:15;;;;;;;2.70;1.13;;;12.60;70.70;;;;;;6305330;22;20528;-74
2023/03/25 05:02:45;;;;;;;5.57;1.47;;;12.60;71.00;;;;;;6306007;22;20937;-74
2023/03/25 05:05:17;;;;;;;4.43;1.30;;;12.70;71.30;;;;;;6305660;22;20405;-74
2023/03/25 05:07:45;;;;;;;3.30;1.50;;;12.70;71.10;;;;;;6306057;22;20395;-73
2023/03/25 05:10:13;;;;;;;2.83;1.10;;;12.70;70.10;;;;;;6305657;22;20957;-74
2023/03/25 05:12:40;;;;;;;4.07;1.30;;;12.70;70.50;;;;;;6306178;22;20497;-74
2023/03/25 05:15:08;;;;;;;3.03;1.60;;;12.70;69.50;;;;;;6305228;22;20414;-74
2023/03/25 05:17:37;;;;;;;5.87;1.40;;;12.70;69.60;;;;;;6305806;22;20417;-74
2023/03/25 05:20:07;;;;;;;2.87;1.03;;;12.60;69.30;;;;;;6305317;22;20441;-74
2023/03/25 05:22:34;;;;;;;2.17;1.00;;;12.70;69.70;;;;;;6305610;22;20457;-74
2023/03/25 05:25:03;;;;;;;5.70;1.23;;;12.70;69.10;;;;;;6306076;22;20441;-75
2023/03/25 05:27:30;;;;;;;3.17;1.60;;;12.80;69.00;;;;;;6307324;22;20487;-76
2023/03/25 05:29:57;;;;;;;4.87;1.67;;;12.80;68.70;;;;;;6307229;22;20432;-74
2023/03/25 05:32:24;;;;;;;3.03;1.50;;;12.90;68.90;;;;;;6307482;22;20406;-74
2023/03/25 05:34:53;;;;;;;5.00;1.70;;;12.90;68.90;;;;;;6307484;22;20406;-74
2023/03/25 05:37:20;;;;;;;3.30;1.00;;;12.90;68.50;;;;;;6307487;22;20430;-73
2023/03/25 05:39:47;;;;;;;2.87;1.50;;;12.90;68.10;;;;;;6307213;22;20985;-74
2023/03/25 05:42:14;;;;;;;4.03;1.43;;;12.80;68.50;;;;;;6307924;22;20406;-73
2023/03/25 05:44:45;;;;;;;7.30;1.80;;;12.90;68.60;;;;;;6307203;22;20784;-74
2023/03/25 05:47:13;;;;;;;5.90;1.50;;;12.90;68.60;;;;;;6307852;22;20707;-73
2023/03/25 05:49:40;;;;;;;6.10;1.50;;;12.90;68.60;;;;;;6307308;22;20426;-73
2023/03/25 05:52:10;;;;;;;6.07;1.80;;;13.00;68.40;;;;;;6307916;22;20878;-67
2023/03/25 05:54:40;;;;;;;5.17;1.83;;;12.90;67.90;;;;;;6307370;22;20498;-74
2023/03/25 05:57:08;;;;;;;5.00;1.77;;;12.90;68.30;;;;;;6307574;22;20434;-74
2023/03/25 05:59:37;;;;;;;5.50;1.70;;;13.00;68.20;;;;;;6307128;22;20442;-74
2023/03/25 06:02:06;;;;;;;4.07;1.63;;;13.10;67.90;;;;;;6307189;22;20413;-74
2023/03/25 06:04:36;;;;;;;5.13;1.53;;;13.20;68.20;;;;;;6280591;22;20443;-74
2023/03/25 06:07:08;;;;;;;5.33;1.60;;;13.20;67.70;;;;;;6307751;22;20406;-74
2023/03/25 06:09:36;;;;;;;5.13;1.70;;;13.20;67.60;;;;;;6254011;22;20516;-74
2023/03/25 06:12:03;;;;;;;3.10;1.50;;;13.10;67.60;;;;;;6307674;22;20957;-71
2023/03/25 06:14:30;;;;;;;5.27;1.60;;;13.10;68.50;;;;;;6306757;22;20409;-73
2023/03/25 06:16:57;;;;;;;4.53;1.57;;;13.00;69.50;;;;;;6306826;22;20440;-74
2023/03/25 06:19:25;;;;;;;4.77;1.50;;;13.00;70.70;;;;;;6307192;22;20520;-73
2023/03/25 06:21:53;;;;;;;7.07;1.63;;;13.00;72.60;;;;;;6307318;22;20406;-73
2023/03/25 06:24:21;;;;;;;4.43;1.43;;;12.90;72.80;;;;;;6307147;22;20402;-73
2023/03/25 06:26:50;;;;;;;4.43;1.80;;;12.80;73.50;;;;;;6306874;22;20413;-73
2023/03/25 06:29:16;;;;;;;5.57;1.43;;;12.80;73.80;;;;;;6306881;22;20414;-73
2023/03/25 06:31:43;;;;;;;4.70;2.13;;;12.70;74.10;;;;;;6306704;22;20410;-73
2023/03/25 06:34:10;;;;;;;6.10;1.70;;;12.70;74.80;;;;;;6307214;22;20414;-73
2023/03/25 06:36:37;;;;;;;5.43;1.70;;;12.70;75.30;;;;;;6278982;22;20434;-73
2023/03/25 06:39:05;;;;;;;4.63;1.50;;;12.60;75.80;;;;;;6307175;22;20448;-73
2023/03/25 06:41:34;;;;;;;4.57;1.47;;;12.60;75.90;;;;;;6307285;22;20521;-74
2023/03/25 06:44:03;;;;;;;3.57;1.50;;;12.50;76.30;;;;;;6307203;22;20406;-74
2023/03/25 06:46:30;;;;;;;4.50;1.53;;;12.50;76.50;;;;;;6306570;22;20444;-73
2023/03/25 06:48:57;;;;;;;2.40;1.20;;;12.50;76.10;;;;;;6306490;22;20436;-74
2023/03/25 06:51:24;;;;;;;3.30;1.00;;;12.50;76.00;;;;;;6306244;22;20490;-74
2023/03/25 06:53:51;;;;;;;3.67;1.27;;;12.50;75.80;;;;;;6307184;22;20494;-74
2023/03/25 06:56:18;;;;;;;3.50;1.50;;;12.60;75.30;;;;;;6306672;22;20927;-74
2023/03/25 06:58:45;;;;;;;3.53;1.43;;;12.60;75.20;;;;;;6306744;22;20410;-74
2023/03/25 07:01:14;;;;;;;3.77;1.20;;;12.60;74.50;;;;;;6306529;22;20438;-74
2023/03/25 07:03:41;;;;;;;2.77;1.20;;;12.70;74.00;;;;;;6307014;22;20434;-75
2023/03/25 07:06:08;;;;;;;4.50;1.40;;;12.80;74.60;;;;;;6306664;22;20489;-73
2023/03/25 07:08:35;;;;;;;4.03;1.43;;;12.80;73.30;;;;;;6306966;22;20402;-73
2023/03/25 07:11:03;;;;;;;2.90;1.30;;;12.90;73.20;;;;;;6307250;22;20801;-73
2023/03/25 07:13:30;;;;;;;4.50;1.30;;;13.00;72.70;;;;;;6306778;22;20411;-73
2023/03/25 07:15:57;;;;;;;1.80;1.07;;;13.00;73.20;;;;;;6306568;22;20917;-74
2023/03/25 07:18:25;;;;;;;4.07;1.40;;;13.10;71.90;;;;;;6307468;22;20434;-73
2023/03/25 07:20:53;;;;;;;4.50;1.53;;;13.10;72.30;;;;;;6306628;22;20434;-74
2023/03/25 07:23:20;;;;;;;3.43;0.90;;;13.20;72.20;;;;;;6307575;22;20419;-75
2023/03/25 07:25:47;;;;;;;4.33;1.20;;;13.30;71.50;;;;;;6306979;22;20683;-75
2023/03/25 07:28:14;;;;;;;2.20;1.00;;;13.40;70.90;;;;;;6306809;22;20982;-74
2023/03/25 07:30:41;;;;;;;2.53;1.10;;;13.50;70.90;;;;;;6307047;22;20398;-74
2023/03/25 07:33:08;;;;;;;3.07;1.33;;;13.60;70.80;;;;;;6307046;22;20435;-75
2023/03/25 07:35:36;;;;;;;3.70;1.30;;;13.60;70.50;;;;;;6306571;22;20416;-75
2023/03/25 07:38:03;;;;;;;2.80;1.10;;;13.60;70.40;;;;;;6306883;22;20434;-74
2023/03/25 07:40:30;;;;;;;6.17;1.70;;;13.60;70.90;;;;;;6306723;22;20533;-74
2023/03/25 07:42:56;;;;;;;4.37;1.30;;;13.40;71.00;;;;;;6307139;22;20794;-74
2023/03/25 07:45:23;;;;;;;1.73;0.90;;;13.40;72.30;;;;;;6306841;22;20944;-74
2023/03/25 07:47:51;;;;;;;2.73;0.97;;;13.50;72.30;;;;;;6280312;22;20436;-74
2023/03/25 07:50:19;;;;;;;2.10;1.10;;;13.70;72.50;;;;;;6307011;22;20402;-74
2023/03/25 07:52:47;;;;;;;2.63;1.27;;;13.80;71.90;;;;;;6307696;22;20417;-74
2023/03/25 07:55:15;;;;;;;3.17;1.10;;;13.90;70.70;;;;;;6306477;22;20497;-74
2023/03/25 07:57:42;;;;;;;2.97;1.27;;;14.00;70.70;;;;;;6306357;22;20970;-74
2023/03/25 08:00:10;;;;;;;3.10;0.83;;;14.20;70.10;;;;;;6306496;22;20438;-75
2023/03/25 08:02:38;;;;;;;1.93;1.27;;;14.20;69.10;;;;;;6306830;22;20489;-73
2023/03/25 08:05:05;;;;;;;3.17;1.27;;;14.20;68.30;;;;;;6306767;22;20992;-73
2023/03/25 08:07:32;;;;;;;1.63;0.90;;;14.40;68.40;;;;;;6306893;22;20493;-73
2023/03/25 08:10:00;;;;;;;2.57;1.03;;;14.40;67.90;;;;;;6306506;22;20407;-73
2023/03/25 08:12:27;;;;;;;3.03;1.10;;;14.40;67.40;;;;;;6306404;22;20489;-73
2023/03/25 08:14:54;;;;;;;3.57;1.30;;;14.50;67.40;;;;;;6305822;22;20505;-73
2023/03/25 08:17:21;;;;;;;4.17;1.33;;;14.60;68.20;;;;;;6306982;22;20469;-73
2023/03/25 08:19:48;;;;;;;2.37;1.20;;;14.60;66.70;;;;;;6306339;22;20489;-73
2023/03/25 08:22:14;;;;;;;2.20;1.17;;;14.60;66.60;;;;;;6307628;22;20489;-74
2023/03/25 08:24:41;;;;;;;3.83;0.97;;;14.50;67.50;;;;;;6307900;22;20417;-73
2023/03/25 08:27:10;;;;;;;2.57;1.03;;;14.40;67.70;;;;;;6309103;22;20426;-74
2023/03/25 08:29:38;;;;;;;2.97;1.00;;;14.20;69.30;;;;;;6307716;22;20838;-74
2023/03/25 08:32:05;;;;;;;2.00;1.10;;;14.10;71.60;;;;;;6279893;22;20720;-74
2023/03/25 08:34:38;;;;;;;3.50;1.50;;;14.10;73.00;;;;;;6306593;22;20500;-75
2023/03/25 08:37:06;;;;;;;2.10;1.17;;;14.10;72.20;;;;;;6307263;22;20533;-76
2023/03/25 08:39:38;;;;;;;3.23;0.90;;;14.00;71.50;;;;;;6307381;22;20464;-75
2023/03/25 08:42:05;;;;;;;2.60;1.00;;;13.90;71.70;;;;;;6306881;22;20433;-75
2023/03/25 08:44:34;;;;;;;4.00;1.13;;;13.90;72.00;;;;;;6307276;22;20417;-77
2023/03/25 08:47:01;;;;;;;1.20;1.00;;;13.90;72.20;;;;;;6307510;22;20437;-75
2023/03/25 08:49:28;;;;;;;1.40;1.10;;;13.90;72.40;;;;;;6313538;22;20434;-76
2023/03/25 08:51:56;;;;;;;3.67;1.10;;;13.90;72.60;;;;;;6312262;22;20440;-76
2023/03/25 08:54:24;;;;;;;2.60;1.00;;;13.80;71.90;;;;;;6309698;22;20453;-76
2023/03/25 08:56:52;;;;;;;0.97;0.80;;;13.90;71.80;;;;;;6306523;22;20438;-75
2023/03/25 08:59:19;;;;;;;2.10;1.53;;;14.00;71.70;;;;;;6307395;22;20705;-75
2023/03/25 09:01:48;;;;;;;1.63;0.90;;;13.90;72.20;;;;;;6308527;22;20833;-74
2023/03/25 09:04:15;;;;;;;1.80;1.17;;;13.90;72.00;;;;;;6308974;22;20441;-75
2023/03/25 09:06:42;;;;;;;2.27;0.80;;;13.90;71.60;;;;;;6309052;22;20398;-75
2023/03/25 09:09:10;;;;;;;3.23;1.13;;;13.90;71.90;;;;;;6308925;22;20436;-75
2023/03/25 09:11:37;;;;;;;2.00;0.80;;;14.00;71.70;;;;;;6308231;22;20410;-75
2023/03/25 09:14:05;;;;;;;1.83;1.10;;;14.10;71.70;;;;;;6308461;22;20494;-75
2023/03/25 09:16:32;;;;;;;0.80;0.60;;;14.30;71.80;;;;;;6307989;22;20525;-76
2023/03/25 09:19:00;;;;;;;1.07;0.77;;;14.30;71.90;;;;;;6308360;22;20894;-74
2023/03/25 09:21:27;;;;;;;1.90;0.73;;;14.50;71.40;;;;;;6308101;22;20922;-75
2023/03/25 09:23:54;;;;;;;1.03;0.90;;;14.50;70.40;;;;;;6308247;22;21173;-75
2023/03/25 09:26:21;;;;;;;1.40;1.00;;;14.50;70.80;;;;;;6307899;22;20434;-75
2023/03/25 09:28:48;;;;;;;2.73;1.10;;;14.50;71.20;;;;;;6308140;22;20434;-75
2023/03/25 09:31:15;;;;;;;2.50;1.03;;;14.50;71.80;;;;;;6308010;22;20415;-75
2023/03/25 09:33:41;;;;;;;1.07;0.90;;;14.40;72.50;;;;;;6308331;22;20429;-74
2023/03/25 09:36:10;;;;;;;0.67;0.67;;;14.30;72.60;;;;;;6308027;22;20395;-75
2023/03/25 09:38:37;;;;;;;1.10;0.80;;;14.20;72.70;;;;;;6308155;22;20437;-76
2023/03/25 09:41:27;;;;;;;1.43;0.87;;;14.00;73.80;;;;;;6307081;22;20521;-75
2023/03/25 09:44:05;;;;;;;1.60;1.00;;;14.00;73.90;;;;;;6308051;22;20465;-74
2023/03/25 09:46:32;;;;;;;1.57;1.13;;;13.90;75.70;;;;;;6307609;22;20458;-75
2023/03/25 09:49:00;;;;;;;1.03;0.90;;;14.00;76.10;;;;;;6307476;22;20701;-75
2023/03/25 09:51:31;;;;;;;2.97;1.27;;;14.30;75.40;;;;;;6307320;22;20503;-74
2023/03/25 09:54:04;;;;;;;2.70;0.83;;;14.50;75.40;;;;;;6307493;22;20501;-74
2023/03/25 09:56:34;;;;;;;2.93;1.00;;;14.70;75.00;;;;;;6308123;22;20493;-75
2023/03/25 09:59:06;;;;;;;3.90;1.00;;;14.90;74.90;;;;;;6308021;22;20433;-76
2023/03/25 10:01:40;;;;;;;1.17;0.90;;;15.00;73.90;;;;;;6307266;22;20475;-63
2023/03/25 10:04:32;;;;;;;2.67;1.17;;;15.00;73.30;;;;;;6307523;22;20397;-63
2023/03/25 10:07:09;;;;;;;1.87;1.00;;;15.10;72.60;;;;;;6307382;22;20418;-64
2023/03/25 10:09:47;;;;;;;1.00;0.90;;;15.30;71.60;;;;;;6306378;22;20418;-64
2023/03/25 10:12:28;;;;;;;2.93;1.10;;;15.40;71.30;;;;;;6306572;22;20513;-63
2023/03/25 10:15:03;;;;;;;1.50;1.03;;;15.50;70.10;;;;;;6306682;22;20501;-66
2023/03/25 10:17:39;;;;;;;2.10;0.93;;;15.40;69.40;;;;;;6307087;22;20394;-65
2023/03/25 10:20:16;;;;;;;1.93;1.10;;;15.40;69.00;;;;;;6306990;22;20430;-65
2023/03/25 10:22:56;;;;;;;2.30;1.00;;;15.30;68.80;;;;;;6306996;22;20660;-63
2023/03/25 10:25:27;;;;;;;1.60;0.90;;;15.30;68.30;;;;;;6306598;22;20394;-63
2023/03/25 10:27:56;;;;;;;2.50;1.37;;;15.40;68.50;;;;;;6305171;22;20422;-64
2023/03/25 10:30:27;;;;;;;1.43;1.00;;;15.40;68.10;;;;;;6307213;22;20462;-76
2023/03/25 10:32:57;;;;;;;1.57;0.90;;;15.30;67.50;;;;;;6307760;22;20393;-71
2023/03/25 10:35:28;;;;;;;2.73;1.10;;;15.20;67.60;;;;;;6306659;22;20474;-72
2023/03/25 10:37:59;;;;;;;2.40;1.00;;;15.20;67.60;;;;;;6252922;22;20418;-62
2023/03/25 10:40:31;;;;;;;1.93;0.90;;;15.20;66.40;;;;;;6306127;22;21080;-63
2023/03/25 10:43:11;;;;;;;2.13;1.27;;;15.30;65.80;;;;;;6306669;22;20394;-63
2023/03/25 10:45:41;;;;;;;3.33;1.40;;;15.30;66.10;;;;;;6306839;22;20422;-63
2023/03/25 10:48:13;;;;;;;2.83;1.13;;;15.40;65.20;;;;;;6306468;22;20428;-63
2023/03/25 10:50:41;;;;;;;3.33;1.10;;;15.50;65.70;;;;;;6306546;22;20398;-63
2023/03/25 10:53:20;;;;;;;1.93;1.10;;;15.50;65.20;;;;;;6306518;22;20460;-63
2023/03/25 10:55:51;;;;;;;3.47;1.30;;;15.40;63.30;;;;;;6306803;22;20410;-64
2023/03/25 10:58:20;;;;;;;5.43;1.87;;;15.30;63.20;;;;;;6306663;22;20700;-64
2023/03/25 11:00:47;;;;;;;3.80;1.20;;;15.30;63.70;;;;;;6306475;22;20430;-64
2023/03/25 11:03:19;;;;;;;2.80;1.67;;;15.30;61.80;;;;;;6306503;22;20411;-64
2023/03/25 11:05:47;;;;;;;2.53;1.10;;;15.30;61.90;;;;;;6306808;22;20864;-64
2023/03/25 11:08:16;;;;;;;2.63;1.27;;;15.30;61.40;;;;;;6306137;22;20409;-64
2023/03/25 11:10:50;;;;;;;1.83;1.20;;;15.50;63.50;;;;;;6306465;22;20772;-64
2023/03/25 11:13:20;;;;;;;1.70;1.00;;;15.60;63.00;;;;;;6305986;22;20453;-64
2023/03/25 11:15:48;;;;;;;3.47;1.20;;;15.60;63.30;;;;;;6306152;22;20455;-64
2023/03/25 11:18:21;;;;;;;4.20;1.17;;;15.50;63.20;;;;;;6307254;22;20453;-64
2023/03/25 11:20:51;;;;;;;2.37;1.00;;;15.40;64.90;;;;;;6306128;22;20460;-64
2023/03/25 11:23:25;;;;;;;2.47;1.20;;;15.40;63.30;;;;;;6306381;22;20409;-64
2023/03/25 11:25:54;;;;;;;4.57;1.57;;;15.30;62.70;;;;;;6306209;22;20390;-63
2023/03/25 11:28:32;;;;;;;2.60;1.20;;;15.40;63.70;;;;;;6306645;22;20454;-63
2023/03/25 11:31:14;;;;;;;4.63;1.47;;;15.50;63.40;;;;;;6306308;22;20436;-64
2023/03/25 11:33:43;;;;;;;1.53;1.20;;;15.70;62.90;;;;;;6306297;22;20482;-64
2023/03/25 11:36:12;;;;;;;2.10;1.33;;;15.90;62.00;;;;;;6305562;22;20485;-64
2023/03/25 11:38:40;;;;;;;4.23;2.03;;;16.10;60.60;;;;;;6306272;22;20402;-64
2023/03/25 11:41:07;;;;;;;1.63;1.10;;;16.30;61.00;;;;;;6305816;22;20442;-64
2023/03/25 11:43:37;;;;;;;2.87;1.10;;;16.30;59.00;;;;;;6306049;22;20936;-63
2023/03/25 11:46:11;;;;;;;2.00;1.40;;;16.40;60.00;;;;;;6305945;22;20485;-64
2023/03/25 11:48:40;;;;;;;3.47;1.30;;;16.50;58.60;;;;;;6306049;22;20405;-64
2023/03/25 11:51:12;;;;;;;2.40;1.20;;;16.50;57.70;;;;;;6305791;22;20403;-63
2023/03/25 11:53:45;;;;;;;3.00;1.13;;;16.40;56.70;;;;;;6305863;22;20847;-63
2023/03/25 11:56:19;;;;;;;2.97;1.07;;;16.40;56.70;;;;;;6305652;22;20508;-64
2023/03/25 11:58:47;;;;;;;2.57;1.13;;;16.40;56.30;;;;;;6306436;22;20414;-63
2023/03/25 12:01:22;;;;;;;1.73;1.00;;;16.30;56.40;;;;;;6305422;22;20971;-64
2023/03/25 12:03:49;;;;;;;1.33;0.87;;;16.20;56.80;;;;;;6306500;22;20409;-62
2023/03/25 12:06:18;;;;;;;0.90;0.60;;;16.30;57.00;;;;;;6305494;22;20402;-64
2023/03/25 12:08:52;;;;;;;1.67;0.80;;;16.30;56.10;;;;;;6306073;22;20554;-64
2023/03/25 12:11:23;;;;;;;3.57;1.27;;;16.30;56.40;;;;;;6305435;22;20855;-64
2023/03/25 12:14:06;;;;;;;1.17;0.70;;;16.50;57.00;;;;;;6306231;22;20474;-64
2023/03/25 12:16:44;;;;;;;1.37;1.00;;;16.50;55.50;;;;;;6305427;22;20418;-65
2023/03/25 12:19:21;;;;;;;1.27;0.77;;;16.50;55.70;;;;;;6305979;22;20472;-64
2023/03/25 12:21:59;;;;;;;0.77;0.73;;;16.60;55.80;;;;;;6305757;22;20525;-63
2023/03/25 12:24:40;;;;;;;1.63;1.00;;;16.60;55.30;;;;;;6305866;22;20387;-64
2023/03/25 12:27:20;;;;;;;2.87;0.90;;;16.70;55.50;;;;;;6305803;22;20512;-64
2023/03/25 12:29:56;;;;;;;1.47;0.90;;;16.70;55.30;;;;;;6305433;22;20504;-63
2023/03/25 12:32:32;;;;;;;1.80;1.10;;;16.90;54.90;;;;;;6305768;22;20432;-64
2023/03/25 12:35:14;;;;;;;1.20;0.70;;;17.10;54.90;;;;;;6306632;22;20386;-63
2023/03/25 12:37:56;;;;;;;2.07;0.80;;;17.10;53.40;;;;;;6309541;22;20409;-63
2023/03/25 12:40:38;;;;;;;3.37;1.10;;;17.10;53.30;;;;;;6309050;22;20425;-64
2023/03/25 12:43:10;;;;;;;2.10;1.13;;;17.20;54.40;;;;;;6308899;22;20453;-63
2023/03/25 12:45:48;;;;;;;1.53;1.00;;;17.10;54.10;;;;;;6308735;22;20434;-64
2023/03/25 12:48:32;;;;;;;2.50;1.30;;;17.20;54.30;;;;;;6308338;22;20397;-64
2023/03/25 12:51:07;;;;;;;2.20;0.90;;;17.10;54.40;;;;;;6308508;22;20442;-64
2023/03/25 12:53:45;;;;;;;1.87;1.30;;;17.30;54.30;;;;;;6309404;22;20472;-63
2023/03/25 12:56:29;;;;;;;2.93;1.10;;;17.60;54.00;;;;;;6309066;22;20386;-63
2023/03/25 12:59:20;;;;;;;2.40;1.23;;;17.70;52.40;;;;;;6309315;22;20391;-63
2023/03/25 13:01:59;;;;;;;2.63;0.80;;;17.70;50.30;;;;;;6308853;22;20190;-65
2023/03/25 13:04:44;;;;;;;1.07;0.97;;;17.70;49.80;;;;;;6309726;22;20528;-63
2023/03/25 13:07:15;;;;;;;4.37;1.90;;;17.60;47.40;;;;;;6309188;22;20460;-63